Celebrity Century — 9HJI9 — position and weather

sailwx.info

Track history (hours):
 
Tides and Currents Weather Stations Pressure Air Temp Water Temp Dewpoint Dewpoint Depression Visibility Wind Speed Wind Dir Waves Ship Positions

Celebrity Century

Last reported at 2017-Mar-21 16:21 UTC. Time now 2017-Mar-28 19:37 UTC.
Position N 31°16' E 123°21'.

Length 250 m; draft 8 m.

Type: Ship. MMSI: 249054000.

Date/timePositionNaut miles runAvg speedWind from/ knotsBaromVisibWave heightAir tempDewpointWater temp
2017-Mar-21 16:21N 31°16' E 123°21'1012.1
2017-Mar-21 15:30N 31°12' E 123°10'1213.0
2017-Mar-21 14:33N 31°10' E 122°56'1512.1
2017-Mar-21 13:16N 31°05' E 122°39'7 9.5
2017-Mar-21 12:31N 31°05' E 122°30'1111.1
2017-Mar-21 11:33N 31°06' E 122°18'1413.9
2017-Mar-21 10:33N 31°14' E 122°04'1413.6
2017-Mar-21 09:33N 31°17' E 121°49'1211.6
2017-Mar-21 08:33N 31°22' E 121°37'6 6.1
2017-Mar-21 07:32N 31°25' E 121°30'0 0.0
2017-Mar-21 06:33N 31°25' E 121°30'0 0.0
2017-Mar-21 05:33N 31°25' E 121°30'0 0.0
2017-Mar-21 04:33N 31°25' E 121°30'0 0.0
2017-Mar-21 03:33N 31°25' E 121°30'0 0.0
2017-Mar-21 02:33N 31°25' E 121°30'0 0.0
2017-Mar-21 01:33N 31°25' E 121°30'2419.0
2017-Mar-21 00:18N 31°15' E 121°56'2428.6
2017-Mar-20 23:27N 31°25' E 121°30'0 0.0
2017-Mar-20 22:28N 31°25' E 121°30'6 6.8
2017-Mar-20 21:33N 31°22' E 121°37'1010.2
2017-Mar-20 20:33N 31°18' E 121°47'1413.8
2017-Mar-20 19:33N 31°14' E 122°03'10 9.9
2017-Mar-20 18:33N 31°09' E 122°13'10 9.9
2017-Mar-20 17:33N 31°07' E 122°24'  
2017-Mar-16 12:27N 31°05' E 122°31'1010.8
2017-Mar-16 11:33N 31°06' E 122°20'1414.4
2017-Mar-16 10:33N 31°14' E 122°06'1514.6
2017-Mar-16 09:33N 31°17' E 121°49'1212.3
2017-Mar-16 08:33N 31°23' E 121°36'6 5.0
2017-Mar-16 07:27N 31°25' E 121°30'0 0.0
2017-Mar-16 06:33N 31°25' E 121°30'0 0.0
2017-Mar-16 05:27N 31°25' E 121°30'0 0.0
2017-Mar-16 04:09N 31°25' E 121°30'0 0.0
2017-Mar-16 03:27N 31°25' E 121°30'0 0.0
2017-Mar-16 02:27N 31°25' E 121°30'0 0.0
2017-Mar-16 01:33N 31°25' E 121°30'0 0.0
2017-Mar-16 00:33N 31°25' E 121°30'0 0.2
2017-Mar-15 23:34N 31°25' E 121°30'9 8.9
2017-Mar-15 22:34N 31°21' E 121°40'10 9.7
2017-Mar-15 21:33N 31°17' E 121°50'10 9.7
2017-Mar-15 20:33N 31°15' E 122°01'10 9.9
2017-Mar-15 19:33N 31°10' E 122°11'1211.8
2017-Mar-15 18:33N 31°07' E 122°25'  
2017-Mar-12 12:33N 31°06' E 122°32'9 9.4
2017-Mar-12 11:33N 31°06' E 122°21'10 9.5
2017-Mar-12 10:33N 31°11' E 122°11'1313.5
2017-Mar-12 09:33N 31°15' E 121°56'1514.9
2017-Mar-12 08:33N 31°20' E 121°40'10 9.7
2017-Mar-12 07:33N 31°25' E 121°30'0 0.1
2017-Mar-12 06:29N 31°25' E 121°30'0 0.0
2017-Mar-12 05:29N 31°25' E 121°30'0 0.0
2017-Mar-12 04:29N 31°25' E 121°30'0 0.0
2017-Mar-12 03:29N 31°25' E 121°30'0 0.0
2017-Mar-12 02:29N 31°25' E 121°30'0 0.0
2017-Mar-12 01:23N 31°25' E 121°30'0 0.0
2017-Mar-12 00:29N 31°25' E 121°30'0 0.1
2017-Mar-11 23:33N 31°25' E 121°30'9 8.8
2017-Mar-11 22:34N 31°21' E 121°39'1313.0
2017-Mar-11 21:34N 31°16' E 121°53'1312.5
2017-Mar-11 20:33N 31°13' E 122°08'1212.2
2017-Mar-11 19:34N 31°06' E 122°20'10 9.9
2017-Mar-11 18:33N 31°07' E 122°31'2311.5
2017-Mar-11 16:33N 31°15' E 122°56'  
Track history (hours):
 
Tides and Currents Weather Stations Pressure Air Temp Water Temp Dewpoint Dewpoint Depression Visibility Wind Speed Wind Dir Waves Ship Positions

Celebrity Century

Last reported at 2017-Mar-21 16:21 UTC. Time now 2017-Mar-28 19:37 UTC.
Position N 31°16' E 123°21'.

Length 250 m; draft 8 m.

Type: Ship. MMSI: 249054000.

Date/timePositionNaut miles runAvg speedWind from/ knotsBaromVisibWave heightAir tempDewpointWater temp
2017-Mar-21 16:21N 31°16' E 123°21'1012.1
2017-Mar-21 15:30N 31°12' E 123°10'1213.0
2017-Mar-21 14:33N 31°10' E 122°56'1512.1
2017-Mar-21 13:16N 31°05' E 122°39'7 9.5
2017-Mar-21 12:31N 31°05' E 122°30'1111.1
2017-Mar-21 11:33N 31°06' E 122°18'1413.9
2017-Mar-21 10:33N 31°14' E 122°04'1413.6
2017-Mar-21 09:33N 31°17' E 121°49'1211.6
2017-Mar-21 08:33N 31°22' E 121°37'6 6.1
2017-Mar-21 07:32N 31°25' E 121°30'0 0.0
2017-Mar-21 06:33N 31°25' E 121°30'0 0.0
2017-Mar-21 05:33N 31°25' E 121°30'0 0.0
2017-Mar-21 04:33N 31°25' E 121°30'0 0.0
2017-Mar-21 03:33N 31°25' E 121°30'0 0.0
2017-Mar-21 02:33N 31°25' E 121°30'0 0.0
2017-Mar-21 01:33N 31°25' E 121°30'2419.0
2017-Mar-21 00:18N 31°15' E 121°56'2428.6
2017-Mar-20 23:27N 31°25' E 121°30'0 0.0
2017-Mar-20 22:28N 31°25' E 121°30'6 6.8
2017-Mar-20 21:33N 31°22' E 121°37'1010.2
2017-Mar-20 20:33N 31°18' E 121°47'1413.8
2017-Mar-20 19:33N 31°14' E 122°03'10 9.9
2017-Mar-20 18:33N 31°09' E 122°13'10 9.9
2017-Mar-20 17:33N 31°07' E 122°24'  
2017-Mar-16 12:27N 31°05' E 122°31'1010.8
2017-Mar-16 11:33N 31°06' E 122°20'1414.4
2017-Mar-16 10:33N 31°14' E 122°06'1514.6
2017-Mar-16 09:33N 31°17' E 121°49'1212.3
2017-Mar-16 08:33N 31°23' E 121°36'6 5.0
2017-Mar-16 07:27N 31°25' E 121°30'0 0.0
2017-Mar-16 06:33N 31°25' E 121°30'0 0.0
2017-Mar-16 05:27N 31°25' E 121°30'0 0.0
2017-Mar-16 04:09N 31°25' E 121°30'0 0.0
2017-Mar-16 03:27N 31°25' E 121°30'0 0.0
2017-Mar-16 02:27N 31°25' E 121°30'0 0.0
2017-Mar-16 01:33N 31°25' E 121°30'0 0.0
2017-Mar-16 00:33N 31°25' E 121°30'0 0.2
2017-Mar-15 23:34N 31°25' E 121°30'9 8.9
2017-Mar-15 22:34N 31°21' E 121°40'10 9.7
2017-Mar-15 21:33N 31°17' E 121°50'10 9.7
2017-Mar-15 20:33N 31°15' E 122°01'10 9.9
2017-Mar-15 19:33N 31°10' E 122°11'1211.8
2017-Mar-15 18:33N 31°07' E 122°25'  
2017-Mar-12 12:33N 31°06' E 122°32'9 9.4
2017-Mar-12 11:33N 31°06' E 122°21'10 9.5
2017-Mar-12 10:33N 31°11' E 122°11'1313.5
2017-Mar-12 09:33N 31°15' E 121°56'1514.9
2017-Mar-12 08:33N 31°20' E 121°40'10 9.7
2017-Mar-12 07:33N 31°25' E 121°30'0 0.1
2017-Mar-12 06:29N 31°25' E 121°30'0 0.0
2017-Mar-12 05:29N 31°25' E 121°30'0 0.0
2017-Mar-12 04:29N 31°25' E 121°30'0 0.0
2017-Mar-12 03:29N 31°25' E 121°30'0 0.0
2017-Mar-12 02:29N 31°25' E 121°30'0 0.0
2017-Mar-12 01:23N 31°25' E 121°30'0 0.0
2017-Mar-12 00:29N 31°25' E 121°30'0 0.1
2017-Mar-11 23:33N 31°25' E 121°30'9 8.8
2017-Mar-11 22:34N 31°21' E 121°39'1313.0
2017-Mar-11 21:34N 31°16' E 121°53'1312.5
2017-Mar-11 20:33N 31°13' E 122°08'1212.2
2017-Mar-11 19:34N 31°06' E 122°20'10 9.9
2017-Mar-11 18:33N 31°07' E 122°31'2311.5
2017-Mar-11 16:33N 31°15' E 122°56'  

Dump ship's entire track history